Weather at Čačak-Preljina Airfield

Public forecast

Using degrees Celsius for public forecast. Weather courtesy of forecast.io.

Closest aviation weather report (METAR) to Čačak-Preljina Airfield

Closest report is Morava Airport, 8.1 nm (15.1 km) SE. Retrieved 2022/07/04 06:30 UTC (3 minutes ago):

LYKV 040630Z VRB02KT CAVOK 27/20 Q1017 NOSIG

Closest aviation forecast (TAF) to Čačak-Preljina Airfield

Closest forecast is Morava Airport, 8.1 nm (15.1 km) SE. Retrieved 2022/07/04 06:00 UTC (33 minutes ago):

TAF LYKV 040500Z 0406/0506 VRB02KT CAVOK TX35/0414Z TN18/0503Z PROB40 TEMPO 0413/0417 VRB15G25KT 5000 TSRA SCT030CB SCT040